Friday, January 19, 2018, 7:20 AM GMT
Back to Local

CWPE, Point Lepreau, N. B.

Location: , , Canada Lat: 45.067
Local Time: 7:20 AM GMT ( 7:20 GMT) Lon: -66.467
Time Zone: GMT Elev: 3 ft

Show me the last for .
Show Coded

Time T Td Feel RH Dir Speed Gust Alt SLP Vis Weather Sky Remarks
2018-01-19 07:00 13 11 7 93 320° 3 - - 29.85 0 None
2018-01-19 06:00 12 11 6 96 320° 3 - - 29.83 0 None
2018-01-19 05:00 11 10 4 94 330° 3 - - 29.83 0 None
2018-01-19 04:00 13 12 - 95 - Calm - - 29.83 0 None
2018-01-19 03:00 17 15 - 90 340° 2 - - 29.83 0 None
2018-01-19 02:00 21 19 15 91 320° 5 - - 29.83 0 None
2018-01-19 01:00 21 20 13 93 330° 7 - - 29.82 0 None
2018-01-19 00:00 18 18 13 97 350° 3 - - 29.83 0 None
2018-01-18 23:00 20 19 13 96 340° 5 - - 29.82 0 None
2018-01-18 22:00 23 20 18 90 330° 3 - - 29.81 0 None
2018-01-18 21:00 26 24 22 92 330° 3 - - 29.81 0 None
2018-01-18 20:00 29 22 25 76 300° 3 - - 29.81 0 None
2018-01-18 19:00 29 24 24 80 300° 5 - - 29.80 0 None
2018-01-18 18:00 28 23 23 78 280° 5 - - 29.82 0 None
2018-01-18 17:00 28 23 20 82 310° 8 - - 29.83 0 None
2018-01-18 16:00 29 27 22 91 320° 8 - - 29.86 0 None
2018-01-18 15:00 29 27 23 92 310° 6 - - 29.88 0 None
2018-01-18 14:00 27 26 21 98 300° 5 - - 29.89 0 None
2018-01-18 13:00 27 26 21 99 290° 5 - - 29.89 0 None
2018-01-18 12:00 25 25 - 100 320° 2 - - 29.88 0 None
2018-01-18 11:00 25 25 - 100 - Calm - - 29.88 0 None
2018-01-18 10:00 25 25 - 99 50° 1 - - 29.88 0 None
2018-01-18 09:00 25 25 21 100 350° 3 - - 29.90 0 None
2018-01-18 08:00 25 25 - 100 350° 2 - - 29.89 0 None

Support USWX by starting your Amazon purchase here.